sensor_id;sensor_type;location;lat;lon;timestamp;pressure;altitude;pressure_sealevel;temperature;humidity
34124;BME280;13153;52.316;21.166;2023-03-01T00:01:23;101703.50;;;2.30;53.89
34124;BME280;13153;52.316;21.166;2023-03-01T00:03:50;101704.94;;;2.27;54.30
34124;BME280;13153;52.316;21.166;2023-03-01T00:06:17;101704.81;;;2.25;54.48
34124;BME280;13153;52.316;21.166;2023-03-01T00:08:43;101699.88;;;2.28;54.33
34124;BME280;13153;52.316;21.166;2023-03-01T00:11:18;101698.06;;;2.27;54.77
34124;BME280;13153;52.316;21.166;2023-03-01T00:13:46;101698.06;;;2.27;54.86
34124;BME280;13153;52.316;21.166;2023-03-01T00:16:29;101696.13;;;2.25;54.61
34124;BME280;13153;52.316;21.166;2023-03-01T00:18:57;101692.19;;;2.30;54.87
34124;BME280;13153;52.316;21.166;2023-03-01T00:21:24;101695.00;;;2.33;54.84
34124;BME280;13153;52.316;21.166;2023-03-01T00:23:50;101689.69;;;2.31;54.68
34124;BME280;13153;52.316;21.166;2023-03-01T00:26:19;101682.94;;;2.33;55.00
34124;BME280;13153;52.316;21.166;2023-03-01T00:28:45;101685.09;;;2.39;54.88
34124;BME280;13153;52.316;21.166;2023-03-01T00:31:16;101687.81;;;2.41;54.72
34124;BME280;13153;52.316;21.166;2023-03-01T00:33:43;101685.34;;;2.42;54.84
34124;BME280;13153;52.316;21.166;2023-03-01T00:36:11;101683.66;;;2.43;54.72
34124;BME280;13153;52.316;21.166;2023-03-01T00:38:42;101685.59;;;2.45;54.44
34124;BME280;13153;52.316;21.166;2023-03-01T00:41:14;101686.75;;;2.49;55.19
34124;BME280;13153;52.316;21.166;2023-03-01T00:43:41;101687.66;;;2.49;54.89
34124;BME280;13153;52.316;21.166;2023-03-01T00:46:16;101685.84;;;2.48;54.97
34124;BME280;13153;52.316;21.166;2023-03-01T00:48:43;101687.91;;;2.52;54.96
34124;BME280;13153;52.316;21.166;2023-03-01T00:51:14;101698.53;;;2.55;55.10
34124;BME280;13153;52.316;21.166;2023-03-01T00:53:41;101679.44;;;2.55;54.96
34124;BME280;13153;52.316;21.166;2023-03-01T00:56:10;101674.38;;;2.56;54.85
34124;BME280;13153;52.316;21.166;2023-03-01T00:58:37;101681.50;;;2.59;54.67
34124;BME280;13153;52.316;21.166;2023-03-01T01:01:30;101680.72;;;2.60;54.87
34124;BME280;13153;52.316;21.166;2023-03-01T01:04:06;101683.19;;;2.58;54.69
34124;BME280;13153;52.316;21.166;2023-03-01T01:06:45;101670.19;;;2.58;55.40
34124;BME280;13153;52.316;21.166;2023-03-01T01:09:15;101675.41;;;2.58;55.56
34124;BME280;13153;52.316;21.166;2023-03-01T01:11:47;101673.59;;;2.57;55.21
34124;BME280;13153;52.316;21.166;2023-03-01T01:14:14;101658.25;;;2.60;55.38
34124;BME280;13153;52.316;21.166;2023-03-01T01:16:40;101654.97;;;2.63;54.92
34124;BME280;13153;52.316;21.166;2023-03-01T01:19:07;101659.50;;;2.65;54.87
34124;BME280;13153;52.316;21.166;2023-03-01T01:21:33;101663.91;;;2.67;55.60
34124;BME280;13153;52.316;21.166;2023-03-01T01:23:59;101661.44;;;2.68;55.36
34124;BME280;13153;52.316;21.166;2023-03-01T01:26:30;101660.53;;;2.68;55.55
34124;BME280;13153;52.316;21.166;2023-03-01T01:28:58;101661.31;;;2.67;55.75
34124;BME280;13153;52.316;21.166;2023-03-01T01:31:26;101665.72;;;2.68;55.63
34124;BME280;13153;52.316;21.166;2023-03-01T01:33:53;101658.84;;;2.68;55.14
34124;BME280;13153;52.316;21.166;2023-03-01T01:36:19;101654.78;;;2.72;55.40
34124;BME280;13153;52.316;21.166;2023-03-01T01:38:45;101659.19;;;2.73;55.46
34124;BME280;13153;52.316;21.166;2023-03-01T01:41:13;101641.00;;;2.73;55.51
34124;BME280;13153;52.316;21.166;2023-03-01T01:43:49;101632.44;;;2.74;55.25
34124;BME280;13153;52.316;21.166;2023-03-01T01:46:30;101640.81;;;2.81;55.61
34124;BME280;13153;52.316;21.166;2023-03-01T01:49:06;101640.50;;;3.00;55.10
34124;BME280;13153;52.316;21.166;2023-03-01T01:51:39;101641.78;;;3.05;54.52
34124;BME280;13153;52.316;21.166;2023-03-01T01:54:12;101633.19;;;3.06;54.62
34124;BME280;13153;52.316;21.166;2023-03-01T01:56:44;101632.41;;;3.07;54.01
34124;BME280;13153;52.316;21.166;2023-03-01T01:59:14;101626.28;;;3.07;54.72
34124;BME280;13153;52.316;21.166;2023-03-01T02:01:40;101634.09;;;3.07;54.17
34124;BME280;13153;52.316;21.166;2023-03-01T02:04:06;101628.88;;;3.07;53.86
34124;BME280;13153;52.316;21.166;2023-03-01T02:06:39;101629.78;;;3.07;54.37
34124;BME280;13153;52.316;21.166;2023-03-01T02:09:13;101632.16;;;3.04;54.61
34124;BME280;13153;52.316;21.166;2023-03-01T02:11:42;101622.53;;;3.03;54.06
34124;BME280;13153;52.316;21.166;2023-03-01T02:14:09;101619.16;;;3.04;54.58
34124;BME280;13153;52.316;21.166;2023-03-01T02:16:35;101621.75;;;3.04;54.35
34124;BME280;13153;52.316;21.166;2023-03-01T02:19:04;101614.75;;;3.03;53.97
34124;BME280;13153;52.316;21.166;2023-03-01T02:25:01;101611.91;;;3.00;53.85
34124;BME280;13153;52.316;21.166;2023-03-01T02:30:48;101608.63;;;2.91;54.08
34124;BME280;13153;52.316;21.166;2023-03-01T02:33:35;101600.63;;;2.88;54.07
34124;BME280;13153;52.316;21.166;2023-03-01T02:36:19;101596.41;;;2.90;55.00
34124;BME280;13153;52.316;21.166;2023-03-01T02:38:47;101602.31;;;2.87;54.29
34124;BME280;13153;52.316;21.166;2023-03-01T02:41:17;101603.09;;;2.86;54.94
34124;BME280;13153;52.316;21.166;2023-03-01T02:43:45;101596.75;;;2.83;54.29
34124;BME280;13153;52.316;21.166;2023-03-01T02:46:21;101589.97;;;2.85;54.80
34124;BME280;13153;52.316;21.166;2023-03-01T02:48:55;101586.47;;;2.84;54.66
34124;BME280;13153;52.316;21.166;2023-03-01T02:51:45;101588.97;;;2.83;54.84
34124;BME280;13153;52.316;21.166;2023-03-01T02:55:06;101582.06;;;2.83;54.54
34124;BME280;13153;52.316;21.166;2023-03-01T02:57:13;101582.31;;;2.86;54.61
34124;BME280;13153;52.316;21.166;2023-03-01T02:59:40;101576.19;;;2.86;54.17
34124;BME280;13153;52.316;21.166;2023-03-01T03:02:24;101567.94;;;2.91;54.84
34124;BME280;13153;52.316;21.166;2023-03-01T03:05:15;101575.59;;;2.90;54.83
34124;BME280;13153;52.316;21.166;2023-03-01T03:07:44;101564.53;;;2.92;54.36
34124;BME280;13153;52.316;21.166;2023-03-01T03:10:27;101568.16;;;2.94;54.76
34124;BME280;13153;52.316;21.166;2023-03-01T03:12:57;101565.66;;;2.96;54.40
34124;BME280;13153;52.316;21.166;2023-03-01T03:15:24;101553.69;;;2.98;53.83
34124;BME280;13153;52.316;21.166;2023-03-01T03:17:52;101564.22;;;2.99;54.55
34124;BME280;13153;52.316;21.166;2023-03-01T03:20:22;101557.19;;;2.98;54.84
34124;BME280;13153;52.316;21.166;2023-03-01T03:22:52;101565.78;;;2.97;54.69
34124;BME280;13153;52.316;21.166;2023-03-01T03:25:19;101563.97;;;2.96;54.28
34124;BME280;13153;52.316;21.166;2023-03-01T03:27:48;101563.88;;;2.95;54.83
34124;BME280;13153;52.316;21.166;2023-03-01T03:30:19;101575.16;;;2.95;54.53
34124;BME280;13153;52.316;21.166;2023-03-01T03:32:47;101571.66;;;2.95;54.46
34124;BME280;13153;52.316;21.166;2023-03-01T03:35:21;101577.88;;;2.97;54.33
34124;BME280;13153;52.316;21.166;2023-03-01T03:37:47;101571.91;;;2.98;54.83
34124;BME280;13153;52.316;21.166;2023-03-01T03:40:36;101566.81;;;2.99;55.03
34124;BME280;13153;52.316;21.166;2023-03-01T03:43:07;101559.91;;;3.00;54.78
34124;BME280;13153;52.316;21.166;2023-03-01T03:45:33;101554.94;;;3.03;54.34
34124;BME280;13153;52.316;21.166;2023-03-01T03:48:00;101548.97;;;3.04;54.38
34124;BME280;13153;52.316;21.166;2023-03-01T03:50:26;101541.94;;;3.03;54.30
34124;BME280;13153;52.316;21.166;2023-03-01T03:52:52;101538.56;;;3.04;54.02
34124;BME280;13153;52.316;21.166;2023-03-01T03:55:18;101541.03;;;3.03;54.42
34124;BME280;13153;52.316;21.166;2023-03-01T03:57:47;101520.03;;;2.99;54.53
34124;BME280;13153;52.316;21.166;2023-03-01T04:00:20;101529.75;;;3.02;53.88
34124;BME280;13153;52.316;21.166;2023-03-01T04:02:47;101526.47;;;3.05;54.31
34124;BME280;13153;52.316;21.166;2023-03-01T04:05:17;101525.78;;;3.07;54.23
34124;BME280;13153;52.316;21.166;2023-03-01T04:07:44;101535.41;;;3.08;54.31
34124;BME280;13153;52.316;21.166;2023-03-01T04:10:20;101538.91;;;3.09;54.83
34124;BME280;13153;52.316;21.166;2023-03-01T04:12:46;101541.50;;;3.09;54.09
34124;BME280;13153;52.316;21.166;2023-03-01T04:15:12;101543.44;;;3.11;54.21
34124;BME280;13153;52.316;21.166;2023-03-01T04:17:46;101534.63;;;3.09;54.71
34124;BME280;13153;52.316;21.166;2023-03-01T04:20:21;101536.97;;;3.06;54.61
34124;BME280;13153;52.316;21.166;2023-03-01T04:22:56;101531.78;;;3.06;54.08
34124;BME280;13153;52.316;21.166;2023-03-01T04:25:26;101529.97;;;3.05;54.14
34124;BME280;13153;52.316;21.166;2023-03-01T04:27:52;101516.75;;;3.02;54.68
34124;BME280;13153;52.316;21.166;2023-03-01T04:30:17;101516.75;;;3.02;53.90
34124;BME280;13153;52.316;21.166;2023-03-01T04:32:43;101522.97;;;3.04;54.56
34124;BME280;13153;52.316;21.166;2023-03-01T04:35:09;101511.78;;;3.05;54.20
34124;BME280;13153;52.316;21.166;2023-03-01T04:37:35;101513.47;;;3.05;54.16
34124;BME280;13153;52.316;21.166;2023-03-01T04:40:03;101510.06;;;3.06;54.10
34124;BME280;13153;52.316;21.166;2023-03-01T04:42:38;101509.06;;;3.04;54.33
34124;BME280;13153;52.316;21.166;2023-03-01T04:45:05;101499.22;;;2.99;54.21
34124;BME280;13153;52.316;21.166;2023-03-01T04:47:43;101495.72;;;2.99;54.79
34124;BME280;13153;52.316;21.166;2023-03-01T04:50:12;101505.09;;;2.97;54.33
34124;BME280;13153;52.316;21.166;2023-03-01T04:52:38;101512.91;;;2.97;54.54
34124;BME280;13153;52.316;21.166;2023-03-01T04:55:05;101503.28;;;2.96;54.39
34124;BME280;13153;52.316;21.166;2023-03-01T04:57:32;101501.72;;;2.98;54.59
34124;BME280;13153;52.316;21.166;2023-03-01T04:59:58;101503.28;;;2.96;54.46
34124;BME280;13153;52.316;21.166;2023-03-01T05:02:24;101509.38;;;2.96;54.95
34124;BME280;13153;52.316;21.166;2023-03-01T05:04:50;101514.59;;;2.96;54.64
34124;BME280;13153;52.316;21.166;2023-03-01T05:07:16;101506.00;;;2.97;54.54
34124;BME280;13153;52.316;21.166;2023-03-01T05:09:46;101508.72;;;2.99;54.13
34124;BME280;13153;52.316;21.166;2023-03-01T05:12:13;101512.09;;;2.98;54.41
34124;BME280;13153;52.316;21.166;2023-03-01T05:14:40;101519.00;;;2.97;54.62
34124;BME280;13153;52.316;21.166;2023-03-01T05:17:06;101518.09;;;2.97;55.04
34124;BME280;13153;52.316;21.166;2023-03-01T05:19:32;101524.88;;;2.95;54.56
34124;BME280;13153;52.316;21.166;2023-03-01T05:21:58;101517.75;;;2.92;54.67
34124;BME280;13153;52.316;21.166;2023-03-01T05:24:33;101516.06;;;2.93;55.10
34124;BME280;13153;52.316;21.166;2023-03-01T05:26:59;101518.78;;;2.94;54.58
34124;BME280;13153;52.316;21.166;2023-03-01T05:29:27;101529.28;;;2.96;54.45
34124;BME280;13153;52.316;21.166;2023-03-01T05:31:57;101529.50;;;2.99;54.71
34124;BME280;13153;52.316;21.166;2023-03-01T05:34:35;101535.06;;;3.04;54.75
34124;BME280;13153;52.316;21.166;2023-03-01T05:37:02;101536.97;;;3.06;54.81
34124;BME280;13153;52.316;21.166;2023-03-01T05:39:29;101541.63;;;3.10;55.02
34124;BME280;13153;52.316;21.166;2023-03-01T05:41:59;101543.78;;;3.16;54.77
34124;BME280;13153;52.316;21.166;2023-03-01T05:44:26;101546.84;;;3.22;53.94
34124;BME280;13153;52.316;21.166;2023-03-01T05:46:52;101546.38;;;3.27;54.49
34124;BME280;13153;52.316;21.166;2023-03-01T05:49:18;101542.44;;;3.33;54.68
34124;BME280;13153;52.316;21.166;2023-03-01T05:51:49;101547.19;;;3.38;53.64
34124;BME280;13153;52.316;21.166;2023-03-01T05:54:16;101545.81;;;3.43;53.59
34124;BME280;13153;52.316;21.166;2023-03-01T05:56:43;101546.25;;;3.49;53.75
34124;BME280;13153;52.316;21.166;2023-03-01T05:59:10;101547.81;;;3.59;53.02
34124;BME280;13153;52.316;21.166;2023-03-01T06:01:36;101543.28;;;3.68;53.50
34124;BME280;13153;52.316;21.166;2023-03-01T06:04:04;101544.97;;;3.79;53.71
34124;BME280;13153;52.316;21.166;2023-03-01T06:06:34;101540.75;;;3.93;52.81
34124;BME280;13153;52.316;21.166;2023-03-01T06:09:00;101540.91;;;4.08;52.56
34124;BME280;13153;52.316;21.166;2023-03-01T06:11:26;101545.38;;;4.22;52.24
34124;BME280;13153;52.316;21.166;2023-03-01T06:13:52;101542.06;;;4.36;51.87
34124;BME280;13153;52.316;21.166;2023-03-01T06:16:17;101542.09;;;4.49;51.99
34124;BME280;13153;52.316;21.166;2023-03-01T06:18:43;101548.56;;;4.68;51.87
34124;BME280;13153;52.316;21.166;2023-03-01T06:21:09;101540.19;;;4.85;51.08
34124;BME280;13153;52.316;21.166;2023-03-01T06:23:35;101544.03;;;5.03;50.65
34124;BME280;13153;52.316;21.166;2023-03-01T06:26:05;101543.53;;;5.22;50.36
34124;BME280;13153;52.316;21.166;2023-03-01T06:28:32;101543.84;;;5.40;50.03
34124;BME280;13153;52.316;21.166;2023-03-01T06:30:58;101540.63;;;5.57;49.39
34124;BME280;13153;52.316;21.166;2023-03-01T06:33:24;101535.78;;;5.76;49.12
34124;BME280;13153;52.316;21.166;2023-03-01T06:35:51;101530.34;;;6.00;48.82
34124;BME280;13153;52.316;21.166;2023-03-01T06:38:16;101528.88;;;6.18;47.99
34124;BME280;13153;52.316;21.166;2023-03-01T06:40:45;101534.25;;;6.34;47.52
34124;BME280;13153;52.316;21.166;2023-03-01T06:43:16;101537.97;;;6.52;47.60
34124;BME280;13153;52.316;21.166;2023-03-01T06:45:42;101532.31;;;6.74;46.54
34124;BME280;13153;52.316;21.166;2023-03-01T06:48:08;101529.00;;;6.91;46.44
34124;BME280;13153;52.316;21.166;2023-03-01T06:50:35;101535.22;;;7.08;46.10
34124;BME280;13153;52.316;21.166;2023-03-01T06:53:02;101538.63;;;7.22;45.47
34124;BME280;13153;52.316;21.166;2023-03-01T06:55:28;101545.75;;;7.39;45.42
34124;BME280;13153;52.316;21.166;2023-03-01T06:58:00;101547.34;;;7.52;45.45
34124;BME280;13153;52.316;21.166;2023-03-01T07:00:27;101548.03;;;7.64;45.03
34124;BME280;13153;52.316;21.166;2023-03-01T07:02:54;101548.00;;;7.79;44.87
34124;BME280;13153;52.316;21.166;2023-03-01T07:05:20;101543.38;;;7.89;44.42
34124;BME280;13153;52.316;21.166;2023-03-01T07:07:46;101550.38;;;8.05;44.77
34124;BME280;13153;52.316;21.166;2023-03-01T07:10:12;101548.00;;;8.26;44.24
34124;BME280;13153;52.316;21.166;2023-03-01T07:12:38;101543.59;;;8.41;44.12
34124;BME280;13153;52.316;21.166;2023-03-01T07:15:06;101542.78;;;8.58;43.07
34124;BME280;13153;52.316;21.166;2023-03-01T07:17:31;101535.44;;;8.69;42.68
34124;BME280;13153;52.316;21.166;2023-03-01T07:19:57;101535.78;;;8.75;42.95
34124;BME280;13153;52.316;21.166;2023-03-01T07:22:23;101524.19;;;8.88;42.95
34124;BME280;13153;52.316;21.166;2023-03-01T07:24:49;101531.06;;;9.02;42.26
34124;BME280;13153;52.316;21.166;2023-03-01T07:27:14;101527.16;;;9.12;41.91
34124;BME280;13153;52.316;21.166;2023-03-01T07:29:40;101524.25;;;9.23;41.68
34124;BME280;13153;52.316;21.166;2023-03-01T07:32:10;101527.47;;;9.36;41.83
34124;BME280;13153;52.316;21.166;2023-03-01T07:34:36;101526.72;;;9.56;41.87
34124;BME280;13153;52.316;21.166;2023-03-01T07:37:02;101541.97;;;9.63;41.81
34124;BME280;13153;52.316;21.166;2023-03-01T07:39:28;101534.69;;;9.75;41.54
34124;BME280;13153;52.316;21.166;2023-03-01T07:41:53;101538.69;;;9.86;41.36
34124;BME280;13153;52.316;21.166;2023-03-01T07:44:19;101535.81;;;10.00;40.66
34124;BME280;13153;52.316;21.166;2023-03-01T07:46:45;101530.53;;;10.17;40.39
34124;BME280;13153;52.316;21.166;2023-03-01T07:49:11;101530.84;;;10.23;40.70
34124;BME280;13153;52.316;21.166;2023-03-01T07:51:37;101534.38;;;10.43;40.02
34124;BME280;13153;52.316;21.166;2023-03-01T07:54:03;101529.25;;;10.46;40.02
34124;BME280;13153;52.316;21.166;2023-03-01T07:56:28;101525.91;;;10.50;40.11
34124;BME280;13153;52.316;21.166;2023-03-01T07:58:54;101537.41;;;10.52;39.84
34124;BME280;13153;52.316;21.166;2023-03-01T08:01:22;101531.03;;;10.47;39.55
34124;BME280;13153;52.316;21.166;2023-03-01T08:03:48;101533.88;;;10.52;40.50
34124;BME280;13153;52.316;21.166;2023-03-01T08:06:16;101541.44;;;10.64;40.00
34124;BME280;13153;52.316;21.166;2023-03-01T08:08:43;101546.47;;;10.78;39.56
34124;BME280;13153;52.316;21.166;2023-03-01T08:11:13;101542.78;;;10.94;39.47
34124;BME280;13153;52.316;21.166;2023-03-01T08:13:39;101543.03;;;11.00;39.60
34124;BME280;13153;52.316;21.166;2023-03-01T08:16:12;101551.59;;;10.95;39.45
34124;BME280;13153;52.316;21.166;2023-03-01T08:18:38;101553.81;;;11.06;40.14
34124;BME280;13153;52.316;21.166;2023-03-01T08:21:06;101546.38;;;11.17;39.63
34124;BME280;13153;52.316;21.166;2023-03-01T08:23:32;101547.41;;;11.20;39.81
34124;BME280;13153;52.316;21.166;2023-03-01T08:26:10;101546.31;;;11.15;39.96
34124;BME280;13153;52.316;21.166;2023-03-01T08:28:37;101541.25;;;11.20;39.70
34124;BME280;13153;52.316;21.166;2023-03-01T08:31:38;101543.88;;;11.20;38.89
34124;BME280;13153;52.316;21.166;2023-03-01T08:34:10;101544.28;;;11.29;39.59
34124;BME280;13153;52.316;21.166;2023-03-01T08:36:41;101535.66;;;11.33;39.31
34124;BME280;13153;52.316;21.166;2023-03-01T08:39:09;101530.78;;;11.42;39.96
34124;BME280;13153;52.316;21.166;2023-03-01T08:41:35;101532.53;;;11.64;39.66
34124;BME280;13153;52.316;21.166;2023-03-01T08:44:01;101527.06;;;11.80;39.76
34124;BME280;13153;52.316;21.166;2023-03-01T08:46:30;101530.91;;;11.88;39.15
34124;BME280;13153;52.316;21.166;2023-03-01T08:48:57;101535.88;;;11.81;39.24
34124;BME280;13153;52.316;21.166;2023-03-01T08:51:24;101541.78;;;11.75;39.26
34124;BME280;13153;52.316;21.166;2023-03-01T08:53:52;101537.94;;;11.67;39.56
34124;BME280;13153;52.316;21.166;2023-03-01T08:56:18;101542.63;;;11.74;39.75
34124;BME280;13153;52.316;21.166;2023-03-01T08:58:49;101537.94;;;11.88;39.73
34124;BME280;13153;52.316;21.166;2023-03-01T09:01:18;101536.69;;;12.01;39.33
34124;BME280;13153;52.316;21.166;2023-03-01T09:03:45;101531.63;;;12.07;39.19
34124;BME280;13153;52.316;21.166;2023-03-01T09:06:12;101532.13;;;12.20;39.45
34124;BME280;13153;52.316;21.166;2023-03-01T09:08:45;101537.66;;;12.27;39.13
34124;BME280;13153;52.316;21.166;2023-03-01T09:11:15;101525.53;;;12.32;39.13
34124;BME280;13153;52.316;21.166;2023-03-01T09:13:43;101520.97;;;12.28;38.98
34124;BME280;13153;52.316;21.166;2023-03-01T09:16:11;101520.25;;;12.08;39.66
34124;BME280;13153;52.316;21.166;2023-03-01T09:18:37;101509.75;;;11.87;40.21
34124;BME280;13153;52.316;21.166;2023-03-01T09:21:12;101499.53;;;11.74;40.43
34124;BME280;13153;52.316;21.166;2023-03-01T09:23:42;101506.03;;;11.61;41.02
34124;BME280;13153;52.316;21.166;2023-03-01T09:26:20;101504.81;;;11.51;41.42
34124;BME280;13153;52.316;21.166;2023-03-01T09:28:52;101512.41;;;11.44;41.38
34124;BME280;13153;52.316;21.166;2023-03-01T09:31:23;101513.41;;;11.47;41.47
34124;BME280;13153;52.316;21.166;2023-03-01T09:33:53;101503.22;;;11.56;42.18
34124;BME280;13153;52.316;21.166;2023-03-01T09:36:24;101504.03;;;11.76;41.49
34124;BME280;13153;52.316;21.166;2023-03-01T09:38:51;101510.72;;;11.89;41.33
34124;BME280;13153;52.316;21.166;2023-03-01T09:44:31;101503.84;;;12.16;40.56
34124;BME280;13153;52.316;21.166;2023-03-01T09:46:59;101504.75;;;12.17;40.76
34124;BME280;13153;52.316;21.166;2023-03-01T09:49:30;101505.56;;;12.16;40.96
34124;BME280;13153;52.316;21.166;2023-03-01T09:52:23;101504.97;;;12.23;41.15
34124;BME280;13153;52.316;21.166;2023-03-01T09:54:55;101490.22;;;12.28;41.09
34124;BME280;13153;52.316;21.166;2023-03-01T09:57:43;101481.56;;;12.32;40.65
34124;BME280;13153;52.316;21.166;2023-03-01T10:03:13;101480.44;;;12.49;40.30
34124;BME280;13153;52.316;21.166;2023-03-01T10:11:26;101469.41;;;12.86;39.82
34124;BME280;13153;52.316;21.166;2023-03-01T10:14:05;101474.91;;;12.93;39.67
34124;BME280;13153;52.316;21.166;2023-03-01T10:16:52;101474.22;;;12.98;39.66
34124;BME280;13153;52.316;21.166;2023-03-01T10:19:39;101470.94;;;13.05;40.08
34124;BME280;13153;52.316;21.166;2023-03-01T10:22:19;101460.59;;;13.11;39.82
34124;BME280;13153;52.316;21.166;2023-03-01T10:24:48;101454.50;;;13.14;40.04
34124;BME280;13153;52.316;21.166;2023-03-01T10:27:49;101461.47;;;13.12;39.97
34124;BME280;13153;52.316;21.166;2023-03-01T10:30:39;101455.94;;;13.04;40.82
34124;BME280;13153;52.316;21.166;2023-03-01T10:33:21;101457.75;;;13.05;40.49
34124;BME280;13153;52.316;21.166;2023-03-01T10:35:49;101445.72;;;13.15;41.16
34124;BME280;13153;52.316;21.166;2023-03-01T10:38:16;101454.78;;;13.21;40.48
34124;BME280;13153;52.316;21.166;2023-03-01T10:41:06;101449.66;;;13.26;40.52
34124;BME280;13153;52.316;21.166;2023-03-01T10:43:50;101449.56;;;13.23;40.69
34124;BME280;13153;52.316;21.166;2023-03-01T10:46:31;101446.88;;;13.21;41.25
34124;BME280;13153;52.316;21.166;2023-03-01T10:49:21;101445.91;;;13.19;41.04
34124;BME280;13153;52.316;21.166;2023-03-01T10:51:51;101448.56;;;13.19;40.93
34124;BME280;13153;52.316;21.166;2023-03-01T10:54:23;101445.72;;;13.15;41.00
34124;BME280;13153;52.316;21.166;2023-03-01T10:56:57;101444.72;;;13.11;41.68
34124;BME280;13153;52.316;21.166;2023-03-01T10:59:30;101440.13;;;13.06;41.67
34124;BME280;13153;52.316;21.166;2023-03-01T11:02:29;101443.47;;;13.00;41.45
34124;BME280;13153;52.316;21.166;2023-03-01T11:05:17;101443.47;;;13.00;41.71
34124;BME280;13153;52.316;21.166;2023-03-01T11:07:57;101440.00;;;13.01;41.95
34124;BME280;13153;52.316;21.166;2023-03-01T11:10:33;101436.50;;;13.02;41.52
34124;BME280;13153;52.316;21.166;2023-03-01T11:13:18;101428.47;;;12.99;42.24
34124;BME280;13153;52.316;21.166;2023-03-01T11:16:04;101429.25;;;12.97;42.40
34124;BME280;13153;52.316;21.166;2023-03-01T11:18:31;101422.13;;;12.94;41.87
34124;BME280;13153;52.316;21.166;2023-03-01T11:20:59;101426.16;;;12.83;41.82
34124;BME280;13153;52.316;21.166;2023-03-01T11:23:30;101424.09;;;12.74;42.71
34124;BME280;13153;52.316;21.166;2023-03-01T11:26:07;101418.69;;;12.70;42.93
34124;BME280;13153;52.316;21.166;2023-03-01T11:28:37;101428.59;;;12.77;43.12
34124;BME280;13153;52.316;21.166;2023-03-01T11:31:08;101417.91;;;12.74;42.74
34124;BME280;13153;52.316;21.166;2023-03-01T11:33:51;101422.13;;;12.67;42.92
34124;BME280;13153;52.316;21.166;2023-03-01T11:39:31;101421.16;;;12.65;43.34
34124;BME280;13153;52.316;21.166;2023-03-01T11:42:18;101416.78;;;12.66;43.50
34124;BME280;13153;52.316;21.166;2023-03-01T11:44:51;101420.38;;;12.68;43.30
34124;BME280;13153;52.316;21.166;2023-03-01T11:50:44;101416.97;;;12.72;43.44
34124;BME280;13153;52.316;21.166;2023-03-01T11:53:42;101415.28;;;12.74;43.02
34124;BME280;13153;52.316;21.166;2023-03-01T11:56:37;101415.88;;;12.65;43.07
34124;BME280;13153;52.316;21.166;2023-03-01T11:59:28;101419.16;;;12.58;43.68
34124;BME280;13153;52.316;21.166;2023-03-01T12:11:00;101408.44;;;12.53;44.47
34124;BME280;13153;52.316;21.166;2023-03-01T12:27:00;101402.09;;;12.48;43.94
34124;BME280;13153;52.316;21.166;2023-03-01T12:32:07;101393.47;;;12.29;43.86
34124;BME280;13153;52.316;21.166;2023-03-01T12:43:10;101386.81;;;12.40;43.86
34124;BME280;13153;52.316;21.166;2023-03-01T12:49:40;101388.50;;;12.38;44.02
34124;BME280;13153;52.316;21.166;2023-03-01T12:52:24;101377.16;;;12.40;44.30
34124;BME280;13153;52.316;21.166;2023-03-01T12:54:58;101379.13;;;12.46;44.07
34124;BME280;13153;52.316;21.166;2023-03-01T12:57:46;101376.38;;;12.43;44.15
34124;BME280;13153;52.316;21.166;2023-03-01T13:00:41;101378.28;;;12.47;44.21
34124;BME280;13153;52.316;21.166;2023-03-01T13:09:43;101377.13;;;12.39;44.29
34124;BME280;13153;52.316;21.166;2023-03-01T13:15:30;101373.47;;;12.35;44.35
34124;BME280;13153;52.316;21.166;2023-03-01T13:26:17;101369.97;;;12.36;43.94
34124;BME280;13153;52.316;21.166;2023-03-01T13:28:55;101360.22;;;12.34;44.08
34124;BME280;13153;52.316;21.166;2023-03-01T13:33:56;101359.38;;;12.35;44.38
34124;BME280;13153;52.316;21.166;2023-03-01T13:39:00;101351.63;;;12.39;44.73
34124;BME280;13153;52.316;21.166;2023-03-01T13:46:46;101345.38;;;12.63;43.92
34124;BME280;13153;52.316;21.166;2023-03-01T13:49:21;101339.38;;;12.67;44.18
34124;BME280;13153;52.316;21.166;2023-03-01T13:51:51;101340.16;;;12.64;44.02
34124;BME280;13153;52.316;21.166;2023-03-01T13:54:29;101339.25;;;12.64;43.94
34124;BME280;13153;52.316;21.166;2023-03-01T13:56:58;101340.84;;;12.59;43.49
34124;BME280;13153;52.316;21.166;2023-03-01T13:59:25;101333.56;;;12.51;43.73
34124;BME280;13153;52.316;21.166;2023-03-01T14:01:58;101334.31;;;12.47;44.29
34124;BME280;13153;52.316;21.166;2023-03-01T14:04:35;101332.50;;;12.46;44.56
34124;BME280;13153;52.316;21.166;2023-03-01T14:07:22;101329.88;;;12.46;44.28
34124;BME280;13153;52.316;21.166;2023-03-01T14:09:58;101334.25;;;12.46;44.05
34124;BME280;13153;52.316;21.166;2023-03-01T14:15:39;101327.88;;;12.39;44.41
34124;BME280;13153;52.316;21.166;2023-03-01T14:18:19;101323.28;;;12.34;44.59
34124;BME280;13153;52.316;21.166;2023-03-01T14:20:48;101320.31;;;12.24;44.73
34124;BME280;13153;52.316;21.166;2023-03-01T14:23:23;101329.84;;;12.21;44.77
34124;BME280;13153;52.316;21.166;2023-03-01T14:25:55;101333.28;;;12.18;44.68
34124;BME280;13153;52.316;21.166;2023-03-01T14:28:32;101322.56;;;12.12;45.08
34124;BME280;13153;52.316;21.166;2023-03-01T14:31:01;101317.13;;;12.08;44.92
34124;BME280;13153;52.316;21.166;2023-03-01T14:33:36;101314.38;;;12.05;45.00
34124;BME280;13153;52.316;21.166;2023-03-01T14:36:10;101308.94;;;12.00;45.06
34124;BME280;13153;52.316;21.166;2023-03-01T14:38:46;101307.13;;;11.99;45.48
34124;BME280;13153;52.316;21.166;2023-03-01T14:41:23;101299.16;;;11.98;45.51